createdAt,value
2022-09-23T00:00:17.288Z,12.56
2022-09-23T00:04:11.320Z,12.44
2022-09-23T00:08:05.316Z,13.47
2022-09-23T00:12:12.493Z,13.40
2022-09-23T00:16:20.928Z,12.96
2022-09-23T00:20:29.250Z,12.55
2022-09-23T00:24:36.305Z,12.46
2022-09-23T00:28:44.540Z,13.58
2022-09-23T00:32:54.817Z,13.41
2022-09-23T00:37:04.763Z,12.93
2022-09-23T00:41:04.021Z,12.52
2022-09-23T00:45:23.169Z,12.45
2022-09-23T00:49:31.323Z,13.55
2022-09-23T00:53:39.656Z,13.37
2022-09-23T00:57:47.827Z,12.91
2022-09-23T01:01:49.845Z,12.47
2022-09-23T01:05:58.069Z,12.38
2022-09-23T01:10:06.267Z,13.43
2022-09-23T01:14:28.359Z,13.27
2022-09-23T01:18:51.754Z,12.78
2022-09-23T01:23:08.047Z,12.27
2022-09-23T01:27:25.480Z,12.24
2022-09-23T01:31:38.381Z,13.36
2022-09-23T01:35:33.898Z,13.19
2022-09-23T01:39:50.964Z,12.73
2022-09-23T01:43:59.164Z,12.28
2022-09-23T01:47:52.739Z,12.23
2022-09-23T01:52:03.933Z,13.38
2022-09-23T01:56:12.131Z,13.29
2022-09-23T02:00:11.940Z,12.85
2022-09-23T02:03:59.886Z,12.47
2022-09-23T02:08:00.888Z,12.32
2022-09-23T02:12:12.104Z,13.47
2022-09-23T02:16:12.956Z,13.37
2022-09-23T02:20:27.160Z,12.92
2022-09-23T02:24:38.341Z,12.46
2022-09-23T02:28:52.747Z,12.45
2022-09-23T02:33:14.332Z,13.55
2022-09-23T02:37:33.378Z,13.40
2022-09-23T02:41:56.765Z,12.93
2022-09-23T02:46:13.447Z,12.49
2022-09-23T02:50:24.946Z,12.48
2022-09-23T02:54:31.900Z,13.63
2022-09-23T02:58:40.025Z,13.48
2022-09-23T03:02:39.357Z,13.02
2022-09-23T03:06:40.178Z,12.63
2022-09-23T03:10:57.377Z,12.57
2022-09-23T03:15:11.442Z,13.70
2022-09-23T03:19:03.686Z,13.47
2022-09-23T03:23:06.495Z,12.98
2022-09-23T03:27:08.175Z,12.52
2022-09-23T03:31:17.546Z,12.45
2022-09-23T03:35:25.774Z,13.56
2022-09-23T03:39:36.023Z,13.38
2022-09-23T03:43:38.951Z,12.87
2022-09-23T03:47:48.418Z,12.41
2022-09-23T03:52:02.493Z,12.35
2022-09-23T03:56:11.781Z,13.46
2022-09-23T04:00:19.886Z,13.30
2022-09-23T04:04:28.180Z,12.78
2022-09-23T04:08:22.625Z,12.26
2022-09-23T04:12:13.417Z,12.11
2022-09-23T04:19:44.083Z,13.14
2022-09-23T04:23:30.854Z,12.78
2022-09-23T04:27:40.094Z,12.35
2022-09-23T04:31:48.218Z,12.38
2022-09-23T04:35:51.115Z,13.43
2022-09-23T04:39:47.873Z,13.26
2022-09-23T04:43:28.492Z,12.81
2022-09-23T04:46:36.038Z,12.43
2022-09-23T04:50:03.845Z,12.20
2022-09-23T04:53:54.054Z,13.10
2022-09-23T04:57:47.074Z,13.32
2022-09-23T05:01:34.566Z,12.97
2022-09-23T05:05:43.910Z,12.58
2022-09-23T05:09:44.395Z,12.53
2022-09-23T05:13:10.194Z,13.58
2022-09-23T05:16:48.946Z,13.60
2022-09-23T05:20:57.139Z,13.24
2022-09-23T05:24:56.220Z,12.83
2022-09-23T05:29:07.891Z,12.77
2022-09-23T05:33:01.430Z,13.89
2022-09-23T05:37:03.385Z,13.82
2022-09-23T05:40:36.766Z,13.36
2022-09-23T05:44:16.374Z,13.02
2022-09-23T05:47:22.301Z,12.82
2022-09-23T05:50:55.005Z,13.80
2022-09-23T05:54:22.758Z,14.06
2022-09-23T05:57:34.909Z,13.77
2022-09-23T06:01:23.120Z,13.45
2022-09-23T06:05:09.322Z,13.10
2022-09-23T06:09:05.396Z,13.04
2022-09-23T06:12:55.886Z,14.13
2022-09-23T06:16:08.967Z,14.18
2022-09-23T06:19:16.015Z,13.84
2022-09-23T06:22:42.878Z,13.53
2022-09-23T06:26:23.255Z,13.16
2022-09-23T06:30:31.414Z,13.13
2022-09-23T06:33:34.740Z,14.16
2022-09-23T06:36:55.386Z,14.16
2022-09-23T06:40:14.365Z,13.81
2022-09-23T06:43:43.254Z,13.49
2022-09-23T06:46:57.532Z,13.13
2022-09-23T06:50:20.963Z,13.02
2022-09-23T06:53:43.956Z,14.08
2022-09-23T06:56:39.723Z,14.34
2022-09-23T06:59:37.432Z,14.08
2022-09-23T07:03:48.566Z,13.68
2022-09-23T07:07:50.658Z,13.27
2022-09-23T07:11:25.249Z,13.17
2022-09-23T07:15:01.910Z,14.31
2022-09-23T07:18:25.907Z,14.45
2022-09-23T07:22:32.929Z,14.11
2022-09-23T07:26:19.032Z,13.73
2022-09-23T07:30:03.718Z,13.41
2022-09-23T07:34:11.931Z,13.42
2022-09-23T07:37:32.186Z,14.71
2022-09-23T07:41:24.903Z,14.89
2022-09-23T07:45:34.194Z,14.56
2022-09-23T07:49:08.783Z,14.23
2022-09-23T07:53:03.031Z,13.89
2022-09-23T07:56:33.450Z,13.85
2022-09-23T08:00:16.124Z,15.05
2022-09-23T08:04:24.282Z,15.19
2022-09-23T08:08:07.981Z,14.89
2022-09-23T08:11:50.888Z,14.58
2022-09-23T08:15:59.889Z,14.49
2022-09-23T08:20:08.050Z,15.16
2022-09-23T08:24:06.897Z,16.79
2022-09-23T08:28:04.973Z,16.83
2022-09-23T08:32:04.471Z,16.42
2022-09-23T08:35:54.532Z,16.01
2022-09-23T08:39:43.726Z,15.61
2022-09-23T08:43:58.139Z,15.30
2022-09-23T08:48:10.811Z,15.46
2022-09-23T08:52:17.007Z,16.62
2022-09-23T08:56:40.648Z,16.50
2022-09-23T09:00:48.967Z,16.19
2022-09-23T09:05:18.233Z,15.84
2022-09-23T09:09:26.440Z,15.53
2022-09-23T09:13:06.181Z,15.77
2022-09-23T09:16:58.474Z,16.81
2022-09-23T09:20:45.269Z,16.77
2022-09-23T09:24:17.199Z,16.44
2022-09-23T09:27:27.191Z,16.26
2022-09-23T09:31:36.410Z,15.92
2022-09-23T09:35:36.866Z,15.34
2022-09-23T09:39:27.488Z,14.84
2022-09-23T09:42:31.451Z,14.69
2022-09-23T09:46:11.113Z,15.67
2022-09-23T09:49:55.768Z,16.13
2022-09-23T09:54:02.721Z,15.82
2022-09-23T09:56:57.673Z,15.41
2022-09-23T10:00:29.508Z,15.11
2022-09-23T10:04:01.839Z,14.81
2022-09-23T10:07:01.602Z,14.60
2022-09-23T10:09:44.460Z,15.42
2022-09-23T10:12:51.114Z,15.66
2022-09-23T10:16:33.901Z,15.37
2022-09-23T10:20:10.784Z,15.02
2022-09-23T10:23:38.928Z,14.77
2022-09-23T10:26:32.973Z,14.69
2022-09-23T10:29:50.278Z,15.80
2022-09-23T10:33:12.151Z,16.08
2022-09-23T10:36:28.834Z,15.91
2022-09-23T10:39:53.443Z,15.64
2022-09-23T10:43:48.798Z,15.24
2022-09-23T10:47:43.145Z,14.98
2022-09-23T10:51:08.578Z,15.48
2022-09-23T10:53:49.413Z,16.72
2022-09-23T10:57:25.420Z,16.94
2022-09-23T11:00:27.599Z,16.62
2022-09-23T11:03:30.623Z,16.25
2022-09-23T11:07:08.453Z,16.23
2022-09-23T11:10:44.918Z,16.17
2022-09-23T11:14:15.919Z,16.19
2022-09-23T11:17:42.849Z,16.32
2022-09-23T11:21:12.510Z,16.14
2022-09-23T11:24:02.102Z,15.93
2022-09-23T11:27:10.301Z,15.72
2022-09-23T11:29:59.360Z,15.50
2022-09-23T11:33:07.277Z,15.27
2022-09-23T11:36:02.915Z,15.14
2022-09-23T11:38:52.218Z,16.13
2022-09-23T11:41:28.268Z,16.67
2022-09-23T11:44:37.213Z,16.69
2022-09-23T11:47:11.289Z,16.56
2022-09-23T11:49:49.581Z,16.42
2022-09-23T11:52:42.112Z,16.29
2022-09-23T11:55:56.324Z,16.26
2022-09-23T11:58:52.147Z,16.43
2022-09-23T12:02:12.401Z,16.36
2022-09-23T12:05:22.141Z,16.12
2022-09-23T12:07:58.413Z,15.84
2022-09-23T12:11:24.676Z,15.59
2022-09-23T12:14:51.365Z,15.31
2022-09-23T12:18:22.235Z,14.95
2022-09-23T12:21:50.665Z,14.82
2022-09-23T12:25:17.835Z,15.99
2022-09-23T12:28:45.110Z,16.41
2022-09-23T12:31:48.308Z,16.20
2022-09-23T12:35:03.538Z,16.07
2022-09-23T12:38:04.143Z,16.07
2022-09-23T12:40:44.895Z,16.20
2022-09-23T12:44:15.235Z,16.31
2022-09-23T12:47:25.910Z,16.29
2022-09-23T12:49:59.384Z,16.14
2022-09-23T12:53:55.377Z,15.98
2022-09-23T12:56:49.626Z,15.78
2022-09-23T12:59:48.662Z,15.65
2022-09-23T13:03:03.873Z,15.62
2022-09-23T13:06:19.867Z,15.77
2022-09-23T13:09:32.213Z,17.14
2022-09-23T13:12:29.781Z,17.58
2022-09-23T13:15:18.072Z,17.46
2022-09-23T13:18:15.130Z,17.20
2022-09-23T13:20:53.463Z,16.97
2022-09-23T13:24:04.140Z,16.80
2022-09-23T13:27:01.009Z,16.58
2022-09-23T13:30:26.523Z,16.31
2022-09-23T13:33:27.581Z,16.23
2022-09-23T13:37:22.153Z,16.23
2022-09-23T13:41:23.794Z,16.26
2022-09-23T13:45:32.000Z,16.21
2022-09-23T13:48:36.239Z,16.12
2022-09-23T13:52:09.349Z,16.13
2022-09-23T13:55:33.116Z,16.20
2022-09-23T13:58:50.448Z,16.14
2022-09-23T14:02:47.462Z,16.10
2022-09-23T14:06:17.996Z,16.08
2022-09-23T14:09:32.162Z,16.09
2022-09-23T14:12:48.574Z,15.97
2022-09-23T14:15:41.163Z,15.83
2022-09-23T14:18:42.189Z,15.68
2022-09-23T14:21:56.615Z,15.64
2022-09-23T14:25:03.522Z,15.66
2022-09-23T14:27:48.752Z,16.69
2022-09-23T14:30:39.282Z,17.21
2022-09-23T14:33:18.568Z,17.06
2022-09-23T14:36:25.760Z,16.77
2022-09-23T14:39:37.114Z,16.46
2022-09-23T14:42:17.726Z,16.13
2022-09-23T14:45:22.679Z,15.88
2022-09-23T14:48:38.155Z,15.58
2022-09-23T14:51:36.445Z,15.40
2022-09-23T14:55:12.146Z,15.13
2022-09-23T14:58:41.734Z,14.63
2022-09-23T15:02:48.449Z,14.12
2022-09-23T15:06:00.022Z,13.82
2022-09-23T15:09:20.078Z,14.45
2022-09-23T15:12:50.875Z,14.40
2022-09-23T15:16:23.351Z,14.09
2022-09-23T15:19:46.711Z,13.63
2022-09-23T15:23:11.591Z,13.28
2022-09-23T15:27:19.729Z,13.01
2022-09-23T15:30:44.822Z,12.99
2022-09-23T15:34:18.488Z,14.13
2022-09-23T15:37:12.697Z,14.28
2022-09-23T15:41:03.704Z,14.05
2022-09-23T15:44:53.091Z,13.57
2022-09-23T15:48:41.252Z,13.17
2022-09-23T15:52:12.782Z,12.99
2022-09-23T15:55:19.273Z,14.00
2022-09-23T15:58:21.581Z,14.24
2022-09-23T16:02:04.048Z,13.97
2022-09-23T16:06:10.573Z,13.53
2022-09-23T16:09:44.148Z,13.17
2022-09-23T16:13:27.744Z,12.95
2022-09-23T16:17:07.749Z,14.04
2022-09-23T16:20:17.823Z,14.12
2022-09-23T16:23:55.553Z,13.78
2022-09-23T16:27:51.870Z,13.32
2022-09-23T16:31:51.472Z,12.94
2022-09-23T16:35:47.104Z,12.88
2022-09-23T16:39:48.673Z,13.98
2022-09-23T16:43:16.790Z,13.84
2022-09-23T16:47:12.282Z,13.43
2022-09-23T16:50:32.757Z,12.93
2022-09-23T16:53:59.351Z,12.65
2022-09-23T16:57:33.827Z,12.52
2022-09-23T17:00:35.861Z,13.59
2022-09-23T17:03:51.598Z,13.81
2022-09-23T17:07:16.062Z,13.52
2022-09-23T17:10:15.335Z,13.13
2022-09-23T17:13:38.174Z,12.84
2022-09-23T17:17:20.554Z,12.63
2022-09-23T17:20:36.650Z,13.66
2022-09-23T17:23:38.710Z,13.82
2022-09-23T17:27:28.208Z,13.52
2022-09-23T17:31:26.791Z,13.05
2022-09-23T17:35:01.859Z,12.69
2022-09-23T17:38:34.526Z,12.51
2022-09-23T17:41:21.596Z,13.51
2022-09-23T17:44:49.046Z,13.79
2022-09-23T17:48:27.385Z,13.46
2022-09-23T17:52:33.348Z,13.03
2022-09-23T17:56:11.582Z,12.57
2022-09-23T17:59:53.678Z,12.36
2022-09-23T18:03:03.148Z,13.48
2022-09-23T18:06:21.676Z,13.61
2022-09-23T18:10:16.895Z,13.27
2022-09-23T18:14:09.336Z,12.79
2022-09-23T18:17:41.966Z,12.37
2022-09-23T18:21:25.777Z,12.21
2022-09-23T18:25:38.660Z,13.28
2022-09-23T18:29:38.999Z,13.28
2022-09-23T18:32:50.032Z,12.83
2022-09-23T18:36:40.778Z,12.53
2022-09-23T18:40:49.925Z,12.19
2022-09-23T18:44:40.512Z,12.20
2022-09-23T18:48:30.428Z,13.39
2022-09-23T18:52:06.920Z,13.37
2022-09-23T18:56:06.836Z,12.96
2022-09-23T19:00:07.627Z,12.49
2022-09-23T19:04:06.691Z,12.10
2022-09-23T19:07:32.630Z,11.93
2022-09-23T19:11:01.383Z,13.12
2022-09-23T19:14:55.843Z,13.22
2022-09-23T19:18:44.175Z,12.82
2022-09-23T19:22:52.407Z,12.36
2022-09-23T19:27:03.704Z,11.93
2022-09-23T19:31:05.391Z,11.86
2022-09-23T19:35:01.547Z,12.96
2022-09-23T19:38:49.858Z,12.88
2022-09-23T19:42:48.054Z,12.45
2022-09-23T19:46:57.305Z,12.03
2022-09-23T19:50:45.887Z,11.92
2022-09-23T19:54:47.042Z,12.98
2022-09-23T19:58:37.829Z,12.95
2022-09-23T20:02:47.872Z,12.49
2022-09-23T20:06:46.155Z,12.04
2022-09-23T20:10:28.560Z,11.91
2022-09-23T20:14:06.746Z,13.00
2022-09-23T20:17:40.269Z,13.00
2022-09-23T20:21:04.075Z,12.59
2022-09-23T20:24:42.406Z,12.27
2022-09-23T20:28:21.106Z,11.89
2022-09-23T20:31:42.277Z,11.82
2022-09-23T20:35:19.138Z,12.90
2022-09-23T20:38:50.158Z,12.98
2022-09-23T20:42:58.331Z,12.64
2022-09-23T20:46:48.291Z,12.20
2022-09-23T20:50:30.257Z,11.83
2022-09-23T20:53:57.873Z,11.73
2022-09-23T20:57:57.135Z,12.78
2022-09-23T21:01:48.497Z,12.97
2022-09-23T21:05:27.271Z,12.58
2022-09-23T21:09:02.792Z,12.20
2022-09-23T21:12:45.319Z,11.98
2022-09-23T21:16:34.724Z,13.07
2022-09-23T21:19:41.667Z,13.09
2022-09-23T21:23:02.760Z,12.76
2022-09-23T21:26:28.271Z,12.39
2022-09-23T21:29:41.318Z,11.92
2022-09-23T21:33:28.427Z,11.67
2022-09-23T21:36:40.455Z,12.67
2022-09-23T21:40:27.107Z,13.00
2022-09-23T21:43:42.476Z,12.66
2022-09-23T21:47:25.871Z,12.19
2022-09-23T21:51:46.041Z,11.75
2022-09-23T21:55:47.388Z,11.71
2022-09-23T21:59:37.226Z,12.72
2022-09-23T22:03:16.363Z,12.58
2022-09-23T22:06:42.047Z,12.16
2022-09-23T22:09:47.999Z,11.71
2022-09-23T22:13:49.799Z,11.40
2022-09-23T22:17:07.298Z,12.34
2022-09-23T22:20:28.531Z,12.49
2022-09-23T22:23:49.421Z,12.11
2022-09-23T22:26:34.511Z,11.74
2022-09-23T22:30:30.786Z,11.36
2022-09-23T22:34:01.153Z,11.18
2022-09-23T22:38:02.410Z,12.19
2022-09-23T22:41:54.571Z,12.19
2022-09-23T22:45:43.483Z,11.73
2022-09-23T22:49:10.580Z,11.28
2022-09-23T22:52:23.007Z,10.90
2022-09-23T22:56:21.678Z,10.71
2022-09-23T23:00:12.890Z,11.88
2022-09-23T23:04:20.062Z,11.90
2022-09-23T23:08:22.157Z,11.39
2022-09-23T23:12:30.303Z,10.86
2022-09-23T23:16:44.451Z,10.43
2022-09-23T23:20:51.147Z,10.43
2022-09-23T23:24:59.283Z,11.59
2022-09-23T23:28:31.291Z,11.48
2022-09-23T23:32:38.370Z,11.03
2022-09-23T23:36:48.251Z,10.55
2022-09-23T23:40:56.614Z,10.41
2022-09-23T23:44:50.669Z,11.48
2022-09-23T23:48:58.822Z,11.35
2022-09-23T23:53:05.571Z,10.81
2022-09-23T23:56:57.613Z,10.32
